Dades meteomassalio
Diari Summary for Febrer 22, 2018 Units:  Metric    English   Both
« Previous Day
Next Day »
Diari Semanal Mensual Anual Personalitzat
  Maxima: Minima: Mijana:
Temperatura: -17.8 °C -17.2 °C -14.9 °C
Rosada: -17.8 °C -23.1 °C -19.9 °C
Humitat: Humidity % 32 % 54 %
Velocitat del vent: 0 km/h 17.9 km/h 42.8 km/h
Racha vent: 0 km/h - -
Vent:- - NW
Pressio: 0 hPa 34120.7 hPa -
Pluja: 0 mm    
Historical Graphs
 
 
Tabular Data for Febrer 22, 2018
Time Temperature Dew Point Pressure Wind Wind Speed Wind Gust Humidity Rainfall Rate (Hourly) solar Conditions
-17.8 °C -17.8 °C 0 hPa Calm     Humidity % 0 mm SolarRadiationWatts/m^2 W/m2 Conditions
00:03 -15.9 °C -19.3 °C 34293.4 hPa NNW 47.6 km/h 47.6 km/h 64 % 0 mm 0.0 W/m2 CLR
00:08 -15.9 °C -19.3 °C 34293.4 hPa WNW 53.6 km/h 53.6 km/h 64 % 0 mm 0.0 W/m2 CLR
00:13 -15.9 °C -19.2 °C 34279.9 hPa NW 41.7 km/h 41.7 km/h 65 % 0 mm 0.0 W/m2 CLR
00:18 -15.9 °C -19.2 °C 34279.9 hPa NW 50.7 km/h 50.7 km/h 65 % 0 mm 0.0 W/m2 CLR
00:23 -15.9 °C -19.2 °C 34279.9 hPa NW 47.6 km/h 47.6 km/h 65 % 0 mm 0.0 W/m2 CLR
00:28 -15.9 °C -19.2 °C 34279.9 hPa WNW 41.7 km/h 41.7 km/h 65 % 0 mm 0.0 W/m2 CLR
00:33 -15.9 °C -19.2 °C 34279.9 hPa NW 47.6 km/h 47.6 km/h 65 % 0 mm 0.0 W/m2 CLR
00:38 -15.9 °C -19.2 °C 34279.9 hPa NW 50.7 km/h 50.7 km/h 65 % 0 mm 0.0 W/m2 CLR
00:43 -15.9 °C -19.2 °C 34279.9 hPa NW 44.7 km/h 44.7 km/h 65 % 0 mm 0.0 W/m2 CLR
00:48 -15.9 °C -19.2 °C 34279.9 hPa NNW 56.6 km/h 56.6 km/h 65 % 0 mm 0.0 W/m2 CLR
00:53 -15.9 °C -19.2 °C 34279.9 hPa NW 46.7 km/h 46.7 km/h 65 % 0 mm 0.0 W/m2 CLR
00:58 -15.9 °C -19.2 °C 34279.9 hPa WNW 41.7 km/h 41.7 km/h 65 % 0 mm 0.0 W/m2 CLR
01:03 -15.9 °C -19.1 °C 34269.7 hPa NNW 44.7 km/h 44.7 km/h 66 % 0 mm 0.0 W/m2 CLR
01:08 -16.2 °C -19.4 °C 34269.7 hPa NW 53.6 km/h 53.6 km/h 66 % 0 mm 0.0 W/m2 CLR
01:13 -16.2 °C -19.4 °C 34269.7 hPa WNW 56.6 km/h 56.6 km/h 66 % 0 mm 0.0 W/m2 CLR
01:18 -16.2 °C -19.4 °C 34269.7 hPa NW 50.7 km/h 50.7 km/h 66 % 0 mm 0.0 W/m2 CLR
01:23 -16.2 °C -19.4 °C 34269.7 hPa NW 50.7 km/h 50.7 km/h 66 % 0 mm 0.0 W/m2 CLR
01:28 -16.2 °C -19.4 °C 34269.7 hPa NW 50.7 km/h 50.7 km/h 66 % 0 mm 0.0 W/m2 CLR
01:33 -16.2 °C -19.4 °C 34269.7 hPa WNW 47.6 km/h 47.6 km/h 66 % 0 mm 0.0 W/m2 CLR
01:38 -16.2 °C -19.4 °C 34269.7 hPa WNW 47.6 km/h 47.6 km/h 66 % 0 mm 0.0 W/m2 CLR
01:43 -16.2 °C -19.4 °C 34269.7 hPa NW 54.4 km/h 54.4 km/h 66 % 0 mm 0.0 W/m2 CLR
01:48 -16.2 °C -19.4 °C 34269.7 hPa NW 44.7 km/h 44.7 km/h 66 % 0 mm 0.0 W/m2 CLR
01:53 -16.2 °C -19.4 °C 34256.2 hPa NW 41.7 km/h 41.7 km/h 66 % 0 mm 0.0 W/m2 CLR
01:58 -16.2 °C -19.3 °C 34269.7 hPa WNW 41.7 km/h 41.7 km/h 67 % 0 mm 0.0 W/m2 CLR
02:03 -16.2 °C -19.3 °C 34269.7 hPa WNW 35.7 km/h 35.7 km/h 67 % 0 mm 0.0 W/m2 CLR
02:08 -16.2 °C -19.3 °C 34269.7 hPa WNW 44.7 km/h 44.7 km/h 67 % 0 mm 0.0 W/m2 CLR
02:13 -16.2 °C -19.3 °C 34269.7 hPa WNW 38.8 km/h 38.8 km/h 67 % 0 mm 0.0 W/m2 CLR
02:18 -16.2 °C -19.3 °C 34269.7 hPa WNW 41.7 km/h 41.7 km/h 67 % 0 mm 0.0 W/m2 CLR
02:23 -16.2 °C -19.3 °C 34269.7 hPa NW 36.2 km/h 36.2 km/h 67 % 0 mm 0.0 W/m2 CLR
02:28 -15.9 °C -19 °C 34269.7 hPa WNW 36.2 km/h 36.2 km/h 67 % 0 mm 0.0 W/m2 CLR
02:33 -16.2 °C -19.3 °C 34269.7 hPa NW 38.8 km/h 38.8 km/h 67 % 0 mm 0.0 W/m2 CLR
02:38 -16.2 °C -19.3 °C 34269.7 hPa NW 32.8 km/h 32.8 km/h 67 % 0 mm 0.0 W/m2 CLR
02:43 -16.2 °C -19.2 °C 34269.7 hPa NW 31.1 km/h 31.1 km/h 68 % 0 mm 0.0 W/m2 CLR
02:48 -16.2 °C -19.2 °C 34256.2 hPa WNW 35.7 km/h 35.7 km/h 68 % 0 mm 0.0 W/m2 CLR
02:53 -16.2 °C -19.2 °C 34256.2 hPa NW 41.7 km/h 41.7 km/h 68 % 0 mm 0.0 W/m2 CLR
02:58 -16.2 °C -19.2 °C 34256.2 hPa NW 35.7 km/h 35.7 km/h 68 % 0 mm 0.0 W/m2 CLR
03:03 -16.2 °C -19.2 °C 34256.2 hPa NW 32.8 km/h 32.8 km/h 68 % 0 mm 0.0 W/m2 CLR
03:09 -16.2 °C -19.1 °C 34256.2 hPa WNW 44.7 km/h 44.7 km/h 69 % 0 mm 0.0 W/m2 CLR
03:14 -16.2 °C -19.1 °C 34256.2 hPa NW 38.8 km/h 38.8 km/h 69 % 0 mm 0.0 W/m2 CLR
03:19 -16.2 °C -19.1 °C 34256.2 hPa WNW 36.2 km/h 36.2 km/h 69 % 0 mm 0.0 W/m2 CLR
03:24 -16.2 °C -19 °C 34256.2 hPa NW 47.6 km/h 47.6 km/h 70 % 0 mm 0.0 W/m2 CLR
03:29 -16.2 °C -19 °C 34246 hPa WNW 44.7 km/h 44.7 km/h 70 % 0 mm 0.0 W/m2 CLR
03:34 -16.2 °C -19 °C 34246 hPa NW 47.6 km/h 47.6 km/h 70 % 0 mm 0.0 W/m2 CLR
03:39 -16.2 °C -19 °C 34246 hPa NW 44.7 km/h 44.7 km/h 70 % 0 mm 0.0 W/m2 CLR
03:44 -16.2 °C -19 °C 34246 hPa NW 44.1 km/h 44.1 km/h 70 % 0 mm 0.0 W/m2 CLR
03:49 -16.2 °C -19 °C 34235.8 hPa WNW 41.7 km/h 41.7 km/h 70 % 0 mm 0.0 W/m2 CLR
03:51 -16.2 °C -19 °C 34235.8 hPa WNW 36.2 km/h 36.2 km/h 70 % 0 mm 0.0 W/m2 CLR
03:56 -16.2 °C -19 °C 34235.8 hPa WNW 50.7 km/h 50.7 km/h 70 % 0 mm 0.0 W/m2 CLR
04:01 -16.2 °C -19 °C 34235.8 hPa WNW 50.7 km/h 50.7 km/h 70 % 0 mm 0.0 W/m2 CLR
04:06 -16.2 °C -19 °C 34235.8 hPa WNW 35.7 km/h 35.7 km/h 70 % 0 mm 0.0 W/m2 CLR
04:11 -16.2 °C -19 °C 34235.8 hPa NW 47.6 km/h 47.6 km/h 70 % 0 mm 0.0 W/m2 CLR
04:17 -16.2 °C -19 °C 34235.8 hPa NW 38.8 km/h 38.8 km/h 70 % 0 mm 0.0 W/m2 CLR
04:22 -16.6 °C -19.3 °C 34235.8 hPa WNW 35.7 km/h 35.7 km/h 70 % 0 mm 0.0 W/m2 CLR
04:27 -16.6 °C -19.3 °C 34235.8 hPa NW 29.8 km/h 29.8 km/h 70 % 0 mm 0.0 W/m2 CLR
04:32 -16.6 °C -19.3 °C 34235.8 hPa WNW 29.8 km/h 29.8 km/h 70 % 0 mm 0.0 W/m2 CLR
04:37 -16.6 °C -19.3 °C 34222.3 hPa NW 26.9 km/h 26.9 km/h 70 % 0 mm 0.0 W/m2 CLR
04:42 -16.6 °C -19.2 °C 34222.3 hPa WNW 23.8 km/h 23.8 km/h 71 % 0 mm 0.0 W/m2 CLR
04:47 -16.6 °C -19.2 °C 34222.3 hPa WNW 29.8 km/h 29.8 km/h 71 % 0 mm 0.0 W/m2 CLR
04:52 -16.6 °C -19.2 °C 34222.3 hPa WNW 29.8 km/h 29.8 km/h 71 % 0 mm 0.0 W/m2 CLR
04:57 -16.6 °C -19.1 °C 34222.3 hPa WNW 35.7 km/h 35.7 km/h 72 % 0 mm 0.0 W/m2 CLR
05:02 -16.6 °C -19.1 °C 34222.3 hPa WNW 29.8 km/h 29.8 km/h 72 % 0 mm 0.0 W/m2 CLR
05:07 -16.8 °C -19.3 °C 34222.3 hPa NW 29.8 km/h 29.8 km/h 72 % 0 mm 0.0 W/m2 CLR
05:12 -16.6 °C -19.1 °C 34222.3 hPa West 29.8 km/h 29.8 km/h 72 % 0 mm 0.0 W/m2 CLR
05:17 -16.8 °C -19.3 °C 34222.3 hPa WNW 35.7 km/h 35.7 km/h 72 % 0 mm 0.0 W/m2 CLR
05:22 -16.8 °C -19.3 °C 34222.3 hPa West 35.7 km/h 35.7 km/h 72 % 0 mm 0.0 W/m2 CLR
05:27 -16.6 °C -19.1 °C 34222.3 hPa West 32.8 km/h 32.8 km/h 72 % 0 mm 0.0 W/m2 CLR
05:32 -16.8 °C -19.3 °C 34222.3 hPa WNW 29.8 km/h 29.8 km/h 72 % 0 mm 0.0 W/m2 CLR
05:37 -16.8 °C -19.3 °C 34222.3 hPa WNW 20.9 km/h 20.9 km/h 72 % 0 mm 0.0 W/m2 CLR
05:42 -16.8 °C -19.3 °C 34222.3 hPa West 26.9 km/h 26.9 km/h 72 % 0 mm 0.0 W/m2 CLR
05:47 -16.8 °C -19.3 °C 34222.3 hPa NW 26.9 km/h 26.9 km/h 72 % 0 mm 0.0 W/m2 CLR
05:52 -16.8 °C -19.5 °C 34212.1 hPa WNW 17.9 km/h 17.9 km/h 71 % 0 mm 0.0 W/m2 CLR
05:57 -16.8 °C -19.3 °C 34222.3 hPa WNW 20.9 km/h 20.9 km/h 72 % 0 mm 0.0 W/m2 CLR
06:02 -16.8 °C -19.3 °C 34222.3 hPa WNW 29.8 km/h 29.8 km/h 72 % 0 mm 0.0 W/m2 CLR
06:07 -16.8 °C -19.3 °C 34222.3 hPa WNW 35.7 km/h 35.7 km/h 72 % 0 mm 0.0 W/m2 CLR
06:12 -16.8 °C -19.3 °C 34212.1 hPa WNW 29.8 km/h 29.8 km/h 72 % 0 mm 0.0 W/m2 CLR
06:17 -16.8 °C -19.3 °C 34222.3 hPa West 35.7 km/h 35.7 km/h 72 % 0 mm 0.0 W/m2 CLR
06:22 -16.8 °C -19.3 °C 34222.3 hPa NW 36.2 km/h 36.2 km/h 72 % 0 mm 0.0 W/m2 CLR
06:27 -16.8 °C -19.3 °C 34212.1 hPa WNW 29.8 km/h 29.8 km/h 72 % 0 mm 0.0 W/m2 CLR
06:32 -16.8 °C -19.3 °C 34222.3 hPa West 29.8 km/h 29.8 km/h 72 % 0 mm 0.0 W/m2 CLR
06:37 -16.8 °C -19.3 °C 34222.3 hPa WNW 31.1 km/h 31.1 km/h 72 % 0 mm 0.0 W/m2 CLR
06:42 -16.8 °C -19.3 °C 34222.3 hPa NW 35.7 km/h 35.7 km/h 73 % 0 mm 0.0 W/m2 CLR
06:47 -16.8 °C -19.3 °C 34222.3 hPa NW 26.9 km/h 26.9 km/h 73 % 0 mm 0.0 W/m2 CLR
06:57 -16.8 °C -19.3 °C 34222.3 hPa WNW 32.8 km/h 32.8 km/h 73 % 0 mm 0.0 W/m2 CLR
07:02 -17.2 °C -19.6 °C 34222.3 hPa WNW 29.8 km/h 29.8 km/h 73 % 0 mm 0.0 W/m2 CLR
07:07 -17.2 °C -19.6 °C 34222.3 hPa WNW 35.7 km/h 35.7 km/h 73 % 0 mm 0.0 W/m2 CLR
07:12 -16.8 °C -19.3 °C 34212.1 hPa NW 23.8 km/h 23.8 km/h 73 % 0 mm 0.0 W/m2 CLR
07:17 -17.2 °C -19.6 °C 34212.1 hPa WNW 32.8 km/h 32.8 km/h 73 % 0 mm 0.0 W/m2 CLR
07:22 -16.8 °C -19.3 °C 34212.1 hPa WNW 41.4 km/h 41.4 km/h 73 % 0 mm 0.0 W/m2 CLR
07:27 -16.8 °C -19.3 °C 34212.1 hPa WNW 31.1 km/h 31.1 km/h 73 % 0 mm 0.0 W/m2 CLR
07:32 -16.8 °C -19.3 °C 34212.1 hPa NW 36.2 km/h 36.2 km/h 73 % 0 mm 0.0 W/m2 CLR
07:37 -16.8 °C -19.3 °C 34212.1 hPa WNW 35.7 km/h 35.7 km/h 73 % 0 mm 0.0 W/m2 OVC
07:42 -16.8 °C -19.3 °C 34222.3 hPa NW 35.7 km/h 35.7 km/h 73 % 0 mm 0.0 W/m2 OVC
07:47 -16.8 °C -19.3 °C 34222.3 hPa NW 33.6 km/h 33.6 km/h 73 % 0 mm 5.0 W/m2 OVC
07:52 -16.8 °C -19.3 °C 34212.1 hPa NW 26.9 km/h 26.9 km/h 73 % 0 mm 9.0 W/m2 BKN
07:57 -16.8 °C -19.3 °C 34212.1 hPa WNW 29.8 km/h 29.8 km/h 73 % 0 mm 14.0 W/m2 BKN
08:02 -16.8 °C -19.3 °C 34212.1 hPa NNW 38.8 km/h 38.8 km/h 73 % 0 mm 18.0 W/m2 BKN
08:07 -16.8 °C -19.3 °C 34222.3 hPa NW 38.8 km/h 38.8 km/h 73 % 0 mm 23.0 W/m2 BKN
08:12 -16.8 °C -19.3 °C 34222.3 hPa West 26.9 km/h 26.9 km/h 73 % 0 mm 26.0 W/m2 BKN
08:17 -16.8 °C -19.3 °C 34222.3 hPa WNW 32.8 km/h 32.8 km/h 72 % 0 mm 35.0 W/m2 BKN
08:22 -16.8 °C -19.3 °C 34222.3 hPa WNW 38.8 km/h 38.8 km/h 72 % 0 mm 44.0 W/m2 BKN
08:27 -16.8 °C -19.3 °C 34222.3 hPa NNW 29.8 km/h 29.8 km/h 72 % 0 mm 54.0 W/m2 SCT
08:32 -16.8 °C -19.5 °C 34222.3 hPa NW 35.7 km/h 35.7 km/h 71 % 0 mm 63.0 W/m2 SCT
08:37 -16.8 °C -19.5 °C 34222.3 hPa WNW 32.8 km/h 32.8 km/h 71 % 0 mm 69.0 W/m2 FEW
08:42 -16.8 °C -19.5 °C 34222.3 hPa WNW 44.1 km/h 44.1 km/h 71 % 0 mm 88.0 W/m2 CLR
08:47 -16.6 °C -19.3 °C 34222.3 hPa NW 36.2 km/h 36.2 km/h 70 % 0 mm 100.0 W/m2 FEW
08:52 -16.6 °C -19.3 °C 34222.3 hPa WNW 35.7 km/h 35.7 km/h 70 % 0 mm 114.0 W/m2 CLR
08:57 -16.6 °C -19.3 °C 34222.3 hPa NW 29.8 km/h 29.8 km/h 70 % 0 mm 123.0 W/m2 CLR
09:02 -16.6 °C -19.3 °C 34222.3 hPa WNW 31.1 km/h 31.1 km/h 70 % 0 mm 120.0 W/m2 CLR
09:07 -16.6 °C -19.4 °C 34222.3 hPa NW 41.7 km/h 41.7 km/h 69 % 0 mm 128.0 W/m2 CLR
09:12 -16.6 °C -19.3 °C 34222.3 hPa WNW 41.4 km/h 41.4 km/h 70 % 0 mm 160.0 W/m2 CLR
09:17 -16.2 °C -19.1 °C 34222.3 hPa NW 59.5 km/h 59.5 km/h 69 % 0 mm 188.0 W/m2 CLR
09:22 -16.2 °C -19.2 °C 34222.3 hPa NW 38.8 km/h 38.8 km/h 68 % 0 mm 211.0 W/m2 CLR
09:27 -16.2 °C -19.1 °C 34222.3 hPa WNW 41.7 km/h 41.7 km/h 69 % 0 mm 232.0 W/m2 CLR
09:32 -16.2 °C -19.2 °C 34222.3 hPa NW 50.7 km/h 50.7 km/h 68 % 0 mm 253.0 W/m2 CLR
09:37 -15.9 °C -19 °C 34222.3 hPa NW 50.7 km/h 50.7 km/h 67 % 0 mm 264.0 W/m2 CLR
09:42 -15.9 °C -19 °C 34222.3 hPa NW 41.7 km/h 41.7 km/h 67 % 0 mm 287.0 W/m2 CLR
09:47 -15.9 °C -19 °C 34222.3 hPa NW 49.2 km/h 49.2 km/h 67 % 0 mm 290.0 W/m2 CLR
09:52 -15.9 °C -19 °C 34212.1 hPa NNW 47.6 km/h 47.6 km/h 67 % 0 mm 290.0 W/m2 CLR
09:57 -15.6 °C -18.8 °C 34212.1 hPa NNW 57 km/h 57 km/h 66 % 0 mm 323.0 W/m2 CLR
10:02 -15.6 °C -18.8 °C 34212.1 hPa NNW 41.4 km/h 41.4 km/h 66 % 0 mm 350.0 W/m2 CLR
10:07 -15.6 °C -18.8 °C 34222.3 hPa NW 35.7 km/h 35.7 km/h 66 % 0 mm 181.0 W/m2 CLR
10:12 -15.6 °C -18.9 °C 34222.3 hPa North 38.8 km/h 38.8 km/h 65 % 0 mm 403.0 W/m2 CLR
10:18 -15.3 °C -18.8 °C 34212.1 hPa NNW 44.7 km/h 44.7 km/h 64 % 0 mm 462.0 W/m2 CLR
10:23 -15.3 °C -18.8 °C 34212.1 hPa WNW 35.7 km/h 35.7 km/h 64 % 0 mm 397.0 W/m2 CLR
10:28 -15.3 °C -18.9 °C 34212.1 hPa NNW 41.7 km/h 41.7 km/h 63 % 0 mm 446.0 W/m2 CLR
10:33 -15 °C -18.6 °C 34212.1 hPa NNW 51.8 km/h 51.8 km/h 63 % 0 mm 485.0 W/m2 CLR
10:38 -15 °C -18.6 °C 34222.3 hPa NNW 54.4 km/h 54.4 km/h 63 % 0 mm 478.0 W/m2 CLR
10:43 -15 °C -18.7 °C 34222.3 hPa North 53.6 km/h 53.6 km/h 62 % 0 mm 485.0 W/m2 CLR
10:48 -15 °C -18.7 °C 34222.3 hPa NNW 47.6 km/h 47.6 km/h 62 % 0 mm 432.0 W/m2 CLR
10:53 -15 °C -18.7 °C 34212.1 hPa NW 62.6 km/h 62.6 km/h 62 % 0 mm 178.0 W/m2 CLR
10:58 -15 °C -18.7 °C 34212.1 hPa NNW 53.6 km/h 53.6 km/h 62 % 0 mm 272.0 W/m2 CLR
11:03 -15 °C -18.7 °C 34212.1 hPa NW 46.7 km/h 46.7 km/h 62 % 0 mm 545.0 W/m2 CLR
11:08 -15 °C -18.8 °C 34212.1 hPa North 65.5 km/h 65.5 km/h 61 % 0 mm 220.0 W/m2 CLR
11:13 -15 °C -18.8 °C 34212.1 hPa NW 51.8 km/h 51.8 km/h 61 % 0 mm 599.0 W/m2 CLR
11:18 -14.7 °C -18.7 °C 34212.1 hPa WNW 56.6 km/h 56.6 km/h 60 % 0 mm 610.0 W/m2 CLR
11:23 -14.4 °C -18.5 °C 34212.1 hPa NW 44.7 km/h 44.7 km/h 59 % 0 mm 573.0 W/m2 CLR
11:28 -14.4 °C -18.5 °C 34212.1 hPa NW 56.6 km/h 56.6 km/h 59 % 0 mm 598.0 W/m2 CLR
11:33 -14.4 °C -18.5 °C 34212.1 hPa NNW 41.7 km/h 41.7 km/h 59 % 0 mm 577.0 W/m2 CLR
11:38 -13.8 °C -18.1 °C 34212.1 hPa North 44.7 km/h 44.7 km/h 58 % 0 mm 577.0 W/m2 CLR
11:43 -13.8 °C -18.2 °C 34212.1 hPa NNW 44.7 km/h 44.7 km/h 57 % 0 mm 575.0 W/m2 CLR
11:48 -13.8 °C -18.1 °C 34212.1 hPa NNW 44.7 km/h 44.7 km/h 58 % 0 mm 585.0 W/m2 CLR
11:53 -13.8 °C -18.4 °C 34198.6 hPa NW 53.6 km/h 53.6 km/h 55 % 0 mm 496.0 W/m2 CLR
11:58 -13.8 °C -18.3 °C 34212.1 hPa North 59.5 km/h 59.5 km/h 56 % 0 mm 599.0 W/m2 CLR
12:03 -13.4 °C -18.2 °C 34198.6 hPa NNW 59.5 km/h 59.5 km/h 55 % 0 mm 622.0 W/m2 CLR
12:08 -13.4 °C -18.2 °C 34198.6 hPa NNW 62.6 km/h 62.6 km/h 55 % 0 mm 613.0 W/m2 CLR
12:13 -13.4 °C -18.4 °C 34198.6 hPa NNW 59.5 km/h 59.5 km/h 53 % 0 mm 599.0 W/m2 CLR
12:18 -13.2 °C -18.3 °C 34198.6 hPa NNW 65.5 km/h 65.5 km/h 52 % 0 mm 619.0 W/m2 CLR
12:23 -13.2 °C -18.2 °C 34198.6 hPa North 44.7 km/h 44.7 km/h 53 % 0 mm 619.0 W/m2 CLR
12:28 -13.2 °C -18.2 °C 34188.4 hPa NW 50.7 km/h 50.7 km/h 53 % 0 mm 622.0 W/m2 CLR
12:33 -13.4 °C -18.7 °C 34188.4 hPa WNW 50.7 km/h 50.7 km/h 51 % 0 mm 624.0 W/m2 CLR
12:38 -13.4 °C -18.6 °C 34188.4 hPa NNW 59.5 km/h 59.5 km/h 52 % 0 mm 635.0 W/m2 CLR
12:43 -13.2 °C -18.3 °C 34188.4 hPa NNW 65.5 km/h 65.5 km/h 52 % 0 mm 631.0 W/m2 CLR
12:48 -13.2 °C -18.6 °C 34188.4 hPa NNW 44.7 km/h 44.7 km/h 50 % 0 mm 622.0 W/m2 CLR
12:53 -12.8 °C -18.2 °C 34188.4 hPa North 46.7 km/h 46.7 km/h 51 % 0 mm 633.0 W/m2 CLR
12:58 -12.8 °C -18.3 °C 34188.4 hPa NW 49.2 km/h 49.2 km/h 50 % 0 mm 615.0 W/m2 CLR
13:03 -12.8 °C -18.3 °C 34188.4 hPa North 47.6 km/h 47.6 km/h 50 % 0 mm 624.0 W/m2 CLR
13:08 -12.8 °C -18.7 °C 34178.3 hPa North 50.7 km/h 50.7 km/h 48 % 0 mm 624.0 W/m2 CLR
13:13 -12.6 °C -18.4 °C 34178.3 hPa NNW 59.5 km/h 59.5 km/h 48 % 0 mm 647.0 W/m2 CLR
13:18 -12.6 °C -18.5 °C 34178.3 hPa North 38.8 km/h 38.8 km/h 47 % 0 mm 629.0 W/m2 CLR
13:23 -12.8 °C -18.8 °C 34178.3 hPa NNW 47.6 km/h 47.6 km/h 47 % 0 mm 638.0 W/m2 CLR
13:28 -12.6 °C -18.5 °C 34178.3 hPa North 62.1 km/h 62.1 km/h 47 % 0 mm 647.0 W/m2 CLR
13:33 -12.6 °C -18.5 °C 34178.3 hPa NW 53.6 km/h 53.6 km/h 47 % 0 mm 636.0 W/m2 CLR
13:38 -12.6 °C -18.7 °C 34178.3 hPa NW 38.8 km/h 38.8 km/h 46 % 0 mm 638.0 W/m2 CLR
13:43 -12.6 °C -18.5 °C 34164.7 hPa NNW 47.6 km/h 47.6 km/h 47 % 0 mm 636.0 W/m2 CLR
13:48 -12.6 °C -18.8 °C 34164.7 hPa NNW 56.6 km/h 56.6 km/h 45 % 0 mm 626.0 W/m2 CLR
13:53 -12.6 °C -18.7 °C 34164.7 hPa NNW 41.7 km/h 41.7 km/h 46 % 0 mm 629.0 W/m2 CLR
13:58 -12.2 °C -18.4 °C 34164.7 hPa NNW 36.2 km/h 36.2 km/h 46 % 0 mm 610.0 W/m2 CLR
14:03 -12.2 °C -18.6 °C 34164.7 hPa NNW 47.6 km/h 47.6 km/h 45 % 0 mm 621.0 W/m2 CLR
14:08 -12.6 °C -19 °C 34164.7 hPa North 53.6 km/h 53.6 km/h 44 % 0 mm 619.0 W/m2 CLR
14:13 -12.2 °C -18.6 °C 34154.6 hPa North 44.7 km/h 44.7 km/h 45 % 0 mm 608.0 W/m2 CLR
14:18 -11.9 °C -18.6 °C 34154.6 hPa NW 50.7 km/h 50.7 km/h 43 % 0 mm 621.0 W/m2 CLR
14:23 -11.9 °C -18.4 °C 34154.6 hPa NNW 50.7 km/h 50.7 km/h 44 % 0 mm 601.0 W/m2 CLR
14:28 -11.9 °C -18.8 °C 34154.6 hPa North 50.7 km/h 50.7 km/h 42 % 0 mm 587.0 W/m2 CLR
14:33 -12.2 °C -18.9 °C 34154.6 hPa NW 38.8 km/h 38.8 km/h 43 % 0 mm 596.0 W/m2 CLR
14:38 -11.9 °C -19 °C 34154.6 hPa NNW 44.7 km/h 44.7 km/h 41 % 0 mm 589.0 W/m2 CLR
14:43 -11.9 °C -19 °C 34154.6 hPa NNW 38.8 km/h 39.6 km/h 41 % 0 mm 584.0 W/m2 CLR
14:48 -12.2 °C -19.4 °C 34154.6 hPa WNW 38.8 km/h 38.8 km/h 40 % 0 mm 564.0 W/m2 CLR
14:54 -12.2 °C -19.3 °C 34154.6 hPa NNW 32.8 km/h 32.8 km/h 41 % 0 mm 545.0 W/m2 CLR
14:59 -11.9 °C -19.2 °C 34154.6 hPa NW 36.2 km/h 36.2 km/h 40 % 0 mm 536.0 W/m2 CLR
15:08 -11.9 °C -19.3 °C 34144.4 hPa NW 53.6 km/h 53.6 km/h 39 % 0 mm 531.0 W/m2 CLR
15:13 -11.9 °C -19.6 °C 34144.4 hPa NNW 35.7 km/h 35.7 km/h 38 % 0 mm 522.0 W/m2 CLR
15:18 -11.9 °C -19.3 °C 34144.4 hPa WNW 47.6 km/h 47.6 km/h 39 % 0 mm 512.0 W/m2 CLR
15:23 -11.9 °C -19.6 °C 34130.9 hPa NW 47.6 km/h 47.6 km/h 38 % 0 mm 504.0 W/m2 CLR
15:28 -11.9 °C -19.6 °C 34130.9 hPa North 41.4 km/h 41.4 km/h 38 % 0 mm 497.0 W/m2 CLR
15:33 -11.9 °C -19.6 °C 34130.9 hPa NW 41.7 km/h 41.7 km/h 38 % 0 mm 473.0 W/m2 CLR
15:38 -11.9 °C -19.9 °C 34130.9 hPa NNW 41.7 km/h 41.7 km/h 36 % 0 mm 478.0 W/m2 CLR
15:43 -11.9 °C -19.9 °C 34130.9 hPa North 38.8 km/h 38.8 km/h 36 % 0 mm 464.0 W/m2 CLR
15:48 -11.9 °C -19.9 °C 34130.9 hPa NW 35.7 km/h 35.7 km/h 36 % 0 mm 452.0 W/m2 CLR
15:53 -11.6 °C -19.5 °C 34130.9 hPa NNW 51.8 km/h 51.8 km/h 37 % 0 mm 439.0 W/m2 CLR
15:58 -11.9 °C -19.8 °C 34130.9 hPa NW 47.6 km/h 47.6 km/h 37 % 0 mm 434.0 W/m2 CLR
16:03 -11.6 °C -19.7 °C 34130.9 hPa NW 53.6 km/h 53.6 km/h 36 % 0 mm 420.0 W/m2 CLR
16:08 -11.9 °C -19.8 °C 34120.7 hPa NW 35.7 km/h 35.7 km/h 37 % 0 mm 406.0 W/m2 CLR
16:13 -11.9 °C -20.2 °C 34120.7 hPa NW 50.7 km/h 50.7 km/h 35 % 0 mm 388.0 W/m2 CLR
16:18 -11.9 °C -20.2 °C 34120.7 hPa NNW 49.2 km/h 49.2 km/h 35 % 0 mm 369.0 W/m2 CLR
16:23 -11.9 °C -19.9 °C 34120.7 hPa NNW 33.6 km/h 33.6 km/h 36 % 0 mm 360.0 W/m2 CLR
16:28 -11.9 °C -20.2 °C 34120.7 hPa NW 35.7 km/h 35.7 km/h 35 % 0 mm 346.0 W/m2 CLR
16:33 -11.9 °C -20.2 °C 34120.7 hPa North 38.8 km/h 38.8 km/h 35 % 0 mm 332.0 W/m2 CLR
16:38 -11.9 °C -20.4 °C 34120.7 hPa North 35.7 km/h 35.7 km/h 34 % 0 mm 315.0 W/m2 CLR
16:43 -11.9 °C -20.4 °C 34120.7 hPa NW 38.8 km/h 38.8 km/h 34 % 0 mm 306.0 W/m2 CLR
16:48 -11.9 °C -20.4 °C 34120.7 hPa North 36.2 km/h 36.2 km/h 34 % 0 mm 288.0 W/m2 CLR
16:53 -11.9 °C -20.4 °C 34120.7 hPa North 47.6 km/h 47.6 km/h 34 % 0 mm 276.0 W/m2 CLR
16:58 -11.9 °C -20.6 °C 34120.7 hPa NNW 38.8 km/h 38.8 km/h 33 % 0 mm 262.0 W/m2 CLR
17:03 -11.9 °C -20.6 °C 34120.7 hPa North 38.8 km/h 38.8 km/h 33 % 0 mm 246.0 W/m2 CLR
17:08 -11.9 °C -20.4 °C 34120.7 hPa NNW 47.6 km/h 47.6 km/h 34 % 0 mm 227.0 W/m2 CLR
17:13 -12.2 °C -20.7 °C 34120.7 hPa NW 44.1 km/h 44.1 km/h 34 % 0 mm 209.0 W/m2 CLR
17:18 -12.2 °C -20.4 °C 34120.7 hPa NW 31.1 km/h 31.1 km/h 35 % 0 mm 193.0 W/m2 CLR
17:23 -12.6 °C -20.9 °C 34130.9 hPa NW 50.7 km/h 50.7 km/h 34 % 0 mm 176.0 W/m2 CLR
17:28 -12.6 °C -20.9 °C 34130.9 hPa NW 47.6 km/h 47.6 km/h 34 % 0 mm 155.0 W/m2 CLR
17:33 -12.6 °C -20.7 °C 34130.9 hPa NNW 53.6 km/h 53.6 km/h 35 % 0 mm 137.0 W/m2 CLR
17:38 -12.6 °C -20.7 °C 34130.9 hPa North 53.6 km/h 53.6 km/h 35 % 0 mm 121.0 W/m2 CLR
17:43 -12.6 °C -20.7 °C 34130.9 hPa NW 35.7 km/h 35.7 km/h 35 % 0 mm 105.0 W/m2 CLR
17:48 -12.8 °C -21 °C 34120.7 hPa NNW 46.7 km/h 46.7 km/h 35 % 0 mm 91.0 W/m2 CLR
17:53 -12.8 °C -21 °C 34120.7 hPa NW 35.7 km/h 35.7 km/h 35 % 0 mm 69.0 W/m2 FEW
17:58 -12.8 °C -21 °C 34120.7 hPa NW 29.8 km/h 29.8 km/h 35 % 0 mm 60.0 W/m2 SCT
18:03 -13.2 °C -21.1 °C 34120.7 hPa NW 38.8 km/h 38.8 km/h 36 % 0 mm 49.0 W/m2 SCT
18:08 -13.2 °C -21.3 °C 34120.7 hPa NW 46.7 km/h 46.7 km/h 35 % 0 mm 40.0 W/m2 BKN
18:13 -13.2 °C -21.3 °C 34120.7 hPa NNW 50.7 km/h 50.7 km/h 35 % 0 mm 28.0 W/m2 BKN
18:18 -13.4 °C -21.6 °C 34120.7 hPa NW 50.7 km/h 50.7 km/h 35 % 0 mm 21.0 W/m2 BKN
18:23 -13.4 °C -21.6 °C 34130.9 hPa WNW 41.7 km/h 41.7 km/h 35 % 0 mm 18.0 W/m2 BKN
18:28 -13.4 °C -21.6 °C 34130.9 hPa NW 32.8 km/h 32.8 km/h 35 % 0 mm 14.0 W/m2 BKN
18:33 -13.4 °C -21.6 °C 34130.9 hPa NW 29.8 km/h 29.8 km/h 35 % 0 mm 11.0 W/m2 BKN
18:38 -13.8 °C -21.8 °C 34120.7 hPa WNW 35.7 km/h 35.7 km/h 35 % 0 mm 7.0 W/m2 BKN
18:43 -13.8 °C -22 °C 34130.9 hPa NW 29.8 km/h 29.8 km/h 34 % 0 mm 5.0 W/m2 OVC
18:48 -13.8 °C -22 °C 34130.9 hPa NW 32.8 km/h 32.8 km/h 34 % 0 mm 0.0 W/m2 OVC
18:53 -13.8 °C -22 °C 34130.9 hPa NW 26.9 km/h 26.9 km/h 34 % 0 mm 0.0 W/m2 CLR
18:58 -13.8 °C -22.2 °C 34130.9 hPa NW 35.7 km/h 35.7 km/h 33 % 0 mm 0.0 W/m2 CLR
19:03 -14.1 °C -22.5 °C 34144.4 hPa NW 31.1 km/h 31.1 km/h 33 % 0 mm 0.0 W/m2 CLR
19:08 -14.1 °C -22.5 °C 34144.4 hPa WNW 32.8 km/h 32.8 km/h 33 % 0 mm 0.0 W/m2 CLR
19:13 -14.1 °C -22.5 °C 34144.4 hPa NW 44.7 km/h 44.7 km/h 33 % 0 mm 0.0 W/m2 CLR
19:18 -14.1 °C -22.7 °C 34144.4 hPa WNW 50.7 km/h 50.7 km/h 32 % 0 mm 0.0 W/m2 CLR
19:23 -14.1 °C -22.7 °C 34144.4 hPa NW 41.7 km/h 41.7 km/h 32 % 0 mm 0.0 W/m2 CLR
19:28 -14.1 °C -22.7 °C 34144.4 hPa NNW 50.7 km/h 50.7 km/h 32 % 0 mm 0.0 W/m2 CLR
19:33 -14.1 °C -22.7 °C 34144.4 hPa NW 44.7 km/h 44.7 km/h 32 % 0 mm 0.0 W/m2 CLR
19:38 -14.4 °C -23 °C 34144.4 hPa WNW 53.6 km/h 53.6 km/h 32 % 0 mm 0.0 W/m2 CLR
19:44 -14.4 °C -23 °C 34144.4 hPa NW 41.7 km/h 41.7 km/h 32 % 0 mm 0.0 W/m2 CLR
19:49 -14.4 °C -23 °C 34154.6 hPa NW 47.6 km/h 47.6 km/h 32 % 0 mm 0.0 W/m2 CLR
19:54 -14.4 °C -23 °C 34154.6 hPa NW 53.6 km/h 53.6 km/h 32 % 0 mm 0.0 W/m2 CLR
19:59 -14.4 °C -22.8 °C 34144.4 hPa NW 59.5 km/h 59.5 km/h 33 % 0 mm 0.0 W/m2 CLR
20:04 -14.4 °C -22.8 °C 34154.6 hPa NW 47.6 km/h 47.6 km/h 33 % 0 mm 0.0 W/m2 CLR
20:09 -14.4 °C -22.8 °C 34154.6 hPa NNW 38.8 km/h 38.8 km/h 33 % 0 mm 0.0 W/m2 CLR
20:14 -14.7 °C -23.1 °C 34154.6 hPa NW 62.6 km/h 62.6 km/h 33 % 0 mm 0.0 W/m2 CLR
20:19 -14.7 °C -22.8 °C 34154.6 hPa WNW 46.7 km/h 46.7 km/h 34 % 0 mm 0.0 W/m2 CLR
20:24 -14.7 °C -22.8 °C 34154.6 hPa NW 47.6 km/h 47.6 km/h 34 % 0 mm 0.0 W/m2 CLR
20:29 -14.7 °C -22.8 °C 34154.6 hPa NW 53.6 km/h 53.6 km/h 34 % 0 mm 0.0 W/m2 CLR
20:34 -14.7 °C -22.6 °C 34154.6 hPa NW 56.6 km/h 56.6 km/h 35 % 0 mm 0.0 W/m2 CLR
20:39 -14.7 °C -22.8 °C 34154.6 hPa WNW 50.7 km/h 50.7 km/h 34 % 0 mm 0.0 W/m2 CLR
20:44 -14.7 °C -22.6 °C 34154.6 hPa NW 62.6 km/h 62.6 km/h 35 % 0 mm 0.0 W/m2 CLR
20:49 -15 °C -22.9 °C 34164.7 hPa NW 50.7 km/h 50.7 km/h 35 % 0 mm 0.0 W/m2 CLR
20:54 -15 °C -22.7 °C 34164.7 hPa NW 57 km/h 57 km/h 36 % 0 mm 0.0 W/m2 CLR
20:59 -15 °C -22.7 °C 34164.7 hPa WNW 38.8 km/h 38.8 km/h 36 % 0 mm 0.0 W/m2 CLR
21:04 -15 °C -22.5 °C 34164.7 hPa NW 53.6 km/h 53.6 km/h 37 % 0 mm 0.0 W/m2 CLR
21:09 -15 °C -22.5 °C 34164.7 hPa NW 50.7 km/h 50.7 km/h 37 % 0 mm 0.0 W/m2 CLR
21:14 -15 °C -22.3 °C 34178.3 hPa NW 47.6 km/h 47.6 km/h 38 % 0 mm 0.0 W/m2 CLR
21:19 -15.3 °C -22.6 °C 34164.7 hPa NW 50.7 km/h 50.7 km/h 38 % 0 mm 0.0 W/m2 CLR
21:24 -15.3 °C -22.6 °C 34164.7 hPa NW 41.7 km/h 41.7 km/h 38 % 0 mm 0.0 W/m2 CLR
21:29 -15.3 °C -22.4 °C 34178.3 hPa NW 51.8 km/h 51.8 km/h 39 % 0 mm 0.0 W/m2 CLR
21:34 -15.3 °C -22.4 °C 34178.3 hPa WNW 47.6 km/h 47.6 km/h 39 % 0 mm 0.0 W/m2 CLR
21:39 -15.3 °C -22.2 °C 34178.3 hPa NW 44.7 km/h 44.7 km/h 40 % 0 mm 0.0 W/m2 CLR
21:44 -15.3 °C -22.2 °C 34178.3 hPa NW 36.2 km/h 36.2 km/h 40 % 0 mm 0.0 W/m2 CLR
21:49 -15.3 °C -22.1 °C 34188.4 hPa WNW 41.7 km/h 41.7 km/h 41 % 0 mm 0.0 W/m2 CLR
21:54 -15.3 °C -22.1 °C 34188.4 hPa NW 47.6 km/h 47.6 km/h 41 % 0 mm 0.0 W/m2 CLR
21:59 -15.6 °C -22.3 °C 34188.4 hPa WNW 38.8 km/h 38.8 km/h 41 % 0 mm 0.0 W/m2 CLR
22:04 -15.6 °C -22.2 °C 34198.6 hPa West 32.8 km/h 32.8 km/h 42 % 0 mm 0.0 W/m2 CLR
22:09 -15.6 °C -22 °C 34198.6 hPa WNW 29.8 km/h 29.8 km/h 43 % 0 mm 0.0 W/m2 CLR
22:14 -15.6 °C -22 °C 34198.6 hPa WNW 38.8 km/h 38.8 km/h 43 % 0 mm 0.0 W/m2 CLR
22:19 -15.6 °C -21.8 °C 34198.6 hPa WNW 41.7 km/h 41.7 km/h 44 % 0 mm 0.0 W/m2 CLR
22:24 -15.6 °C -21.7 °C 34198.6 hPa NW 56.6 km/h 56.6 km/h 45 % 0 mm 0.0 W/m2 CLR
22:29 -15.6 °C -21.5 °C 34198.6 hPa NW 50.7 km/h 50.7 km/h 46 % 0 mm 0.0 W/m2 CLR
22:34 -15.6 °C -21.5 °C 34198.6 hPa NW 50.7 km/h 50.7 km/h 46 % 0 mm 0.0 W/m2 CLR
22:39 -15.9 °C -21.6 °C 34198.6 hPa NW 50.7 km/h 50.7 km/h 47 % 0 mm 0.0 W/m2 CLR
22:44 -15.9 °C -21.6 °C 34198.6 hPa WNW 44.7 km/h 44.7 km/h 47 % 0 mm 0.0 W/m2 CLR
22:49 -15.9 °C -21.5 °C 34198.6 hPa NW 50.7 km/h 50.7 km/h 48 % 0 mm 0.0 W/m2 CLR
22:54 -15.9 °C -21.3 °C 34198.6 hPa NW 41.7 km/h 41.7 km/h 49 % 0 mm 0.0 W/m2 CLR
22:59 -15.9 °C -21.2 °C 34198.6 hPa NW 38.8 km/h 38.8 km/h 50 % 0 mm 0.0 W/m2 CLR
23:04 -15.9 °C -21.2 °C 34212.1 hPa WNW 41.7 km/h 41.7 km/h 50 % 0 mm 0.0 W/m2 CLR
23:09 -15.9 °C -21.2 °C 34198.6 hPa NW 44.7 km/h 44.7 km/h 50 % 0 mm 0.0 W/m2 CLR
23:14 -15.9 °C -21 °C 34212.1 hPa NW 41.7 km/h 41.7 km/h 51 % 0 mm 0.0 W/m2 CLR
23:19 -16.2 °C -21.3 °C 34212.1 hPa WNW 47.6 km/h 47.6 km/h 51 % 0 mm 0.0 W/m2 CLR
23:24 -16.2 °C -21.2 °C 34212.1 hPa NW 35.7 km/h 35.7 km/h 52 % 0 mm 0.0 W/m2 CLR
23:29 -16.2 °C -21.2 °C 34212.1 hPa WNW 47.6 km/h 47.6 km/h 52 % 0 mm 0.0 W/m2 CLR
23:34 -16.2 °C -21.1 °C 34222.3 hPa WNW 56.6 km/h 56.6 km/h 53 % 0 mm 0.0 W/m2 CLR
23:39 -16.2 °C -21.1 °C 34222.3 hPa WNW 44.7 km/h 44.7 km/h 53 % 0 mm 0.0 W/m2 CLR
23:44 -16.6 °C -21.2 °C 34222.3 hPa NW 53.6 km/h 53.6 km/h 54 % 0 mm 0.0 W/m2 CLR
23:49 -16.6 °C -21.2 °C 34222.3 hPa WNW 53.6 km/h 53.6 km/h 54 % 0 mm 0.0 W/m2 CLR
23:54 -16.6 °C -21.1 °C 34222.3 hPa WNW 47.6 km/h 47.6 km/h 55 % 0 mm 0.0 W/m2 CLR
23:59 -16.6 °C -20.9 °C 34222.3 hPa WNW 44.7 km/h 44.7 km/h 56 % 0 mm 0.0 W/m2 CLR
Lo Temps de Massalio
Compliments of Weather Underground - 1.25 mb